Time;durP1;ratioP1;P1;durP2;ratioP2;P2;SDS_P1;SDS_P2;PMS_P1;PMS_P2;Temp;Humidity;BMP_temperature;BMP_pressure;BME280_temperature;BME280_humidity;BME280_pressure;Samples;Min_cycle;Max_cycle;Signal;HPM_P1;HPM_P2
2024/03/25 00:01:38;;;;;;;8.52;2.33;;;;;;;13.49;44.60;100606.13;4998961;28;20409;-63
2024/03/25 00:04:04;;;;;;;6.60;1.77;;;;;;;13.47;44.75;100618.91;5015283;28;20116;-63
2024/03/25 00:06:33;;;;;;;7.90;2.13;;;;;;;13.43;44.65;100611.13;4998827;28;20113;-63
2024/03/25 00:08:59;;;;;;;9.10;2.15;;;;;;;13.41;44.36;100615.84;4998766;28;20417;-63
2024/03/25 00:11:24;;;;;;;6.68;2.38;;;;;;;13.40;44.43;100607.91;4998862;28;20034;-64
2024/03/25 00:13:49;;;;;;;6.10;2.15;;;;;;;13.38;43.91;100608.06;5016154;28;20025;-63
2024/03/25 00:16:15;;;;;;;4.80;2.28;;;;;;;13.36;44.79;100611.91;4998619;28;20053;-63
2024/03/25 00:18:40;;;;;;;5.43;1.80;;;;;;;13.32;43.91;100600.59;5016160;28;20037;-63
2024/03/25 00:21:06;;;;;;;9.02;2.55;;;;;;;13.31;45.13;100598.94;4998599;28;20402;-63
2024/03/25 00:23:31;;;;;;;13.13;2.05;;;;;;;13.28;44.37;100596.53;5015230;28;20490;-63
2024/03/25 00:25:56;;;;;;;3.95;2.00;;;;;;;13.28;45.00;100610.00;4998115;28;20034;-63
2024/03/25 00:28:22;;;;;;;7.90;1.88;;;;;;;13.27;45.19;100608.28;5015784;28;20039;-63
2024/03/25 00:30:47;;;;;;;10.57;2.22;;;;;;;13.21;44.72;100606.19;5015924;28;20030;-64
2024/03/25 00:33:12;;;;;;;15.13;2.50;;;;;;;13.23;44.19;100604.19;4997976;28;20541;-63
2024/03/25 00:35:38;;;;;;;5.00;2.45;;;;;;;13.19;44.87;100600.13;5015834;28;20049;-63
2024/03/25 00:38:04;;;;;;;5.15;2.10;;;;;;;13.19;44.21;100604.66;4998843;28;20034;-63
2024/03/25 00:40:30;;;;;;;9.18;2.38;;;;;;;13.17;44.48;100599.44;4983329;28;20033;-62
2024/03/25 00:42:55;;;;;;;7.22;2.78;;;;;;;13.16;45.17;100611.19;4998402;28;20401;-62
2024/03/25 00:45:21;;;;;;;9.18;2.47;;;;;;;13.13;44.60;100605.25;4981959;28;20557;-63
2024/03/25 00:47:46;;;;;;;9.20;3.85;;;;;;;13.09;43.80;100610.09;5015626;28;20461;-63
2024/03/25 00:50:11;;;;;;;6.60;2.05;;;;;;;13.08;44.92;100613.78;4998152;28;20053;-63
2024/03/25 00:52:37;;;;;;;15.52;2.70;;;;;;;13.06;45.28;100610.38;4998188;28;20037;-63
2024/03/25 00:55:02;;;;;;;8.50;2.63;;;;;;;13.06;44.37;100610.38;4981613;28;20113;-63
2024/03/25 00:57:29;;;;;;;7.95;2.58;;;;;;;13.06;44.50;100613.06;4982604;28;20422;-66
2024/03/25 00:59:55;;;;;;;9.23;2.45;;;;;;;13.04;44.84;100612.34;5000915;28;20486;-63
2024/03/25 01:02:21;;;;;;;5.65;2.55;;;;;;;13.04;44.72;100612.34;5018371;28;20028;-63
2024/03/25 01:04:46;;;;;;;10.80;2.60;;;;;;;13.03;45.09;100604.44;5016552;28;20026;-63
2024/03/25 01:07:12;;;;;;;5.43;2.63;;;;;;;13.02;45.21;100608.97;5015308;28;20022;-63
2024/03/25 01:09:37;;;;;;;10.15;2.30;;;;;;;13.01;45.07;100615.34;5015292;28;20079;-63
2024/03/25 01:12:03;;;;;;;8.88;2.33;;;;;;;12.98;45.18;100607.56;4981519;28;20030;-63
2024/03/25 01:14:28;;;;;;;5.72;3.30;;;;;;;12.99;45.24;100603.88;5015269;28;20482;-64
2024/03/25 01:16:54;;;;;;;8.82;2.60;;;;;;;12.98;45.60;100607.56;5014898;28;20022;-63
2024/03/25 01:19:21;;;;;;;7.55;2.20;;;;;;;12.95;44.58;100601.66;4997051;28;20025;-63
2024/03/25 01:21:46;;;;;;;9.70;2.60;;;;;;;12.97;44.55;100607.72;4997701;28;20397;-63
2024/03/25 01:24:11;;;;;;;11.32;3.03;;;;;;;12.96;44.38;100619.47;4997341;28;20022;-63
2024/03/25 01:26:37;;;;;;;11.07;2.80;;;;;;;12.94;44.79;100608.88;5014962;28;20030;-63
2024/03/25 01:29:02;;;;;;;9.77;2.78;;;;;;;12.94;44.66;100608.88;5016107;28;20018;-64
2024/03/25 01:31:28;;;;;;;4.07;2.13;;;;;;;12.90;45.02;100601.28;4997345;28;20080;-64
2024/03/25 01:33:53;;;;;;;5.55;2.55;;;;;;;12.92;44.92;100607.34;5014918;28;20432;-63
2024/03/25 01:36:19;;;;;;;11.38;3.35;;;;;;;12.91;45.11;100611.00;4980904;28;20088;-63
2024/03/25 01:38:44;;;;;;;9.30;2.67;;;;;;;12.89;45.01;100613.00;4997298;28;20025;-63
2024/03/25 01:41:11;;;;;;;13.68;2.65;;;;;;;12.90;44.29;100614.72;4997168;28;20386;-63
2024/03/25 01:43:37;;;;;;;11.88;2.75;;;;;;;12.87;44.79;100604.25;4980948;28;20113;-63
2024/03/25 01:46:02;;;;;;;10.95;2.22;;;;;;;12.86;44.72;100603.41;4997180;28;20053;-63
2024/03/25 01:48:28;;;;;;;9.02;2.60;;;;;;;12.83;44.79;100609.09;5014480;28;20537;-63
2024/03/25 01:50:53;;;;;;;7.75;2.55;;;;;;;12.83;45.85;100607.25;4996964;28;20112;-63
2024/03/25 01:53:19;;;;;;;9.85;2.92;;;;;;;12.78;44.68;100601.47;4997112;28;20033;-63
2024/03/25 01:55:44;;;;;;;12.07;2.72;;;;;;;12.78;45.25;100603.31;4980527;28;20021;-63
2024/03/25 01:58:10;;;;;;;8.43;3.10;;;;;;;12.79;44.21;100613.03;4996686;28;20056;-63
2024/03/25 02:00:36;;;;;;;9.50;3.20;;;;;;;12.76;45.22;100613.34;4996880;28;20046;-63
2024/03/25 02:03:02;;;;;;;12.20;3.28;;;;;;;12.76;44.82;100607.97;4980894;28;20068;-63
2024/03/25 02:05:27;;;;;;;13.32;2.92;;;;;;;12.74;45.02;100615.34;4981680;28;20057;-64
2024/03/25 02:07:53;;;;;;;12.25;4.15;;;;;;;12.72;44.55;100607.44;4999377;28;20103;-64
2024/03/25 02:10:20;;;;;;;6.63;2.35;;;;;;;12.69;45.44;100598.81;4983959;28;20030;-63
2024/03/25 02:12:46;;;;;;;6.68;2.88;;;;;;;12.68;45.41;100599.81;5000585;28;20505;-64
2024/03/25 02:15:15;;;;;;;9.48;2.90;;;;;;;12.67;45.39;100600.81;5000235;28;20417;-64
2024/03/25 02:17:41;;;;;;;5.20;2.50;;;;;;;12.66;44.90;100605.34;5001036;28;20080;-63
2024/03/25 02:20:08;;;;;;;12.40;2.70;;;;;;;12.66;45.77;100607.19;4998659;28;20038;-63
2024/03/25 02:22:36;;;;;;;10.00;2.75;;;;;;;12.65;45.18;100605.47;4996852;28;20445;-63
2024/03/25 02:25:06;;;;;;;8.88;3.33;;;;;;;12.62;44.71;100597.69;4996728;28;20033;-63
2024/03/25 02:27:32;;;;;;;7.28;4.18;;;;;;;12.59;44.77;100596.16;4996587;28;20076;-63
2024/03/25 02:30:08;;;;;;;12.52;2.83;;;;;;;12.58;44.93;100594.50;4996586;28;20041;-63
2024/03/25 02:32:34;;;;;;;10.88;3.13;;;;;;;12.58;45.50;100588.25;4979884;28;20101;-63
2024/03/25 02:35:01;;;;;;;12.45;2.72;;;;;;;12.57;44.80;100589.25;5013847;28;20544;-63
2024/03/25 02:37:27;;;;;;;7.28;2.70;;;;;;;12.52;44.96;100578.09;4996255;28;20034;-63
2024/03/25 02:39:58;;;;;;;6.88;2.70;;;;;;;12.51;45.14;100582.63;5014049;28;20034;-63
2024/03/25 02:42:27;;;;;;;12.73;4.05;;;;;;;12.49;45.32;100578.41;4996825;28;20030;-63
2024/03/25 02:44:56;;;;;;;5.97;2.53;;;;;;;12.47;44.78;100569.66;4981300;28;20026;-63
2024/03/25 02:47:21;;;;;;;9.88;2.85;;;;;;;12.43;45.44;100569.09;4981160;28;20057;-63
2024/03/25 02:49:47;;;;;;;10.52;2.78;;;;;;;12.43;45.05;100565.53;4981879;28;20498;-63
2024/03/25 02:52:12;;;;;;;9.05;2.42;;;;;;;12.38;44.98;100567.84;4998685;28;20108;-64
2024/03/25 02:54:37;;;;;;;7.82;2.97;;;;;;;12.34;45.40;100569.97;4998353;28;20076;-63
2024/03/25 02:57:03;;;;;;;6.82;2.47;;;;;;;12.30;44.83;100573.09;4996474;28;20061;-63
2024/03/25 02:59:28;;;;;;;6.55;2.90;;;;;;;12.23;44.72;100568.31;4995819;28;20034;-63
2024/03/25 03:01:54;;;;;;;8.43;2.28;;;;;;;12.21;44.79;100564.94;4995719;28;20518;-63
2024/03/25 03:04:19;;;;;;;7.20;3.25;;;;;;;12.19;45.45;100569.59;4979534;28;20565;-63
2024/03/25 03:06:44;;;;;;;11.13;2.88;;;;;;;12.16;45.42;100559.16;4996135;28;20037;-63
2024/03/25 03:09:10;;;;;;;6.53;2.65;;;;;;;12.12;44.86;100554.19;4996045;28;20088;-63
2024/03/25 03:11:35;;;;;;;3.33;2.30;;;;;;;12.07;44.62;100554.66;5013415;28;20041;-63
2024/03/25 03:14:01;;;;;;;4.15;2.20;;;;;;;12.02;45.31;100543.50;4979416;28;20033;-63
2024/03/25 03:16:26;;;;;;;9.80;2.47;;;;;;;11.99;45.70;100549.16;4995689;28;20041;-63
2024/03/25 03:18:51;;;;;;;5.88;2.15;;;;;;;12.00;45.54;100550.03;4979553;28;20498;-63
2024/03/25 03:21:17;;;;;;;11.50;2.67;;;;;;;11.96;45.51;100554.81;4979381;28;20058;-64
2024/03/25 03:23:42;;;;;;;7.55;2.80;;;;;;;11.96;45.06;100554.81;4979362;28;20033;-66
2024/03/25 03:26:07;;;;;;;4.68;2.33;;;;;;;11.97;45.28;100561.91;4979290;28;20034;-63
2024/03/25 03:28:33;;;;;;;10.90;2.90;;;;;;;12.00;45.71;100569.66;4995533;28;20038;-65
2024/03/25 03:30:58;;;;;;;8.27;2.70;;;;;;;11.97;46.05;100559.22;4995278;28;20030;-63
2024/03/25 03:33:23;;;;;;;7.65;2.58;;;;;;;12.01;44.99;100562.44;4979143;28;20498;-63
2024/03/25 03:35:49;;;;;;;7.60;2.90;;;;;;;11.99;45.88;100565.28;5012939;28;20401;-65
2024/03/25 03:38:15;;;;;;;6.35;2.85;;;;;;;12.00;44.70;100561.59;4995695;28;20489;-63
2024/03/25 03:40:40;;;;;;;7.57;2.15;;;;;;;11.96;45.66;100553.97;4995562;28;20045;-64
2024/03/25 03:43:05;;;;;;;8.02;2.60;;;;;;;11.96;45.36;100552.13;4979307;28;20030;-64
2024/03/25 03:45:33;;;;;;;6.53;2.53;;;;;;;11.99;45.49;100554.53;4995356;28;20026;-63
2024/03/25 03:47:59;;;;;;;6.68;2.38;;;;;;;11.96;45.39;100560.19;4995421;28;20498;-63
2024/03/25 03:50:24;;;;;;;5.07;2.28;;;;;;;11.99;45.60;100559.91;5012997;28;20037;-63
2024/03/25 03:52:49;;;;;;;10.50;3.22;;;;;;;11.97;46.08;100561.03;4995471;28;20104;-64
2024/03/25 03:55:15;;;;;;;14.85;3.03;;;;;;;11.95;45.54;100558.47;4995281;28;20042;-64
2024/03/25 03:57:42;;;;;;;6.57;2.13;;;;;;;11.89;45.67;100547.50;4996155;28;20042;-63
2024/03/25 04:00:09;;;;;;;7.28;2.20;;;;;;;11.86;45.39;100542.41;4997553;28;20030;-63
2024/03/25 04:02:34;;;;;;;4.70;2.50;;;;;;;11.83;45.63;100540.88;5016390;28;20061;-63
2024/03/25 04:05:00;;;;;;;12.05;2.30;;;;;;;11.79;45.10;100541.28;4999041;28;20116;-63
2024/03/25 04:07:27;;;;;;;5.15;1.98;;;;;;;11.73;45.80;100540.03;4998686;28;20036;-63
2024/03/25 04:09:57;;;;;;;5.63;1.67;;;;;;;11.74;45.32;100544.41;4999264;28;20022;-63
2024/03/25 04:12:23;;;;;;;9.18;2.42;;;;;;;11.72;44.89;100549.09;5016376;28;20034;-63
2024/03/25 04:14:49;;;;;;;7.68;2.65;;;;;;;11.70;45.51;100545.69;4982491;28;20046;-63
2024/03/25 04:17:14;;;;;;;5.80;2.42;;;;;;;11.67;45.81;100545.94;4998870;28;20461;-63
2024/03/25 04:19:39;;;;;;;8.27;2.67;;;;;;;11.64;45.08;100538.19;4998698;28;20026;-63
2024/03/25 04:22:06;;;;;;;6.97;4.07;;;;;;;11.58;44.91;100538.75;4982275;28;20034;-64
2024/03/25 04:24:31;;;;;;;5.25;2.58;;;;;;;11.54;44.96;100532.81;5013922;28;20033;-63
2024/03/25 04:26:56;;;;;;;9.88;2.60;;;;;;;11.54;45.76;100542.69;5001868;28;20409;-63
2024/03/25 04:29:22;;;;;;;7.65;2.20;;;;;;;11.44;45.09;100528.47;5035647;28;20401;-63
2024/03/25 04:31:47;;;;;;;7.70;2.20;;;;;;;11.47;46.00;100541.59;5018332;28;20079;-63
2024/03/25 04:34:13;;;;;;;8.80;2.60;;;;;;;11.45;45.13;100540.88;5017851;28;20037;-63
2024/03/25 04:36:38;;;;;;;7.35;2.53;;;;;;;11.42;45.94;100550.03;5001743;28;20057;-64
2024/03/25 04:39:03;;;;;;;3.38;2.30;;;;;;;11.38;45.39;100542.44;5017893;28;20044;-63
2024/03/25 04:41:29;;;;;;;6.63;2.92;;;;;;;11.39;45.00;100538.78;5001565;28;20038;-63
2024/03/25 04:43:54;;;;;;;6.97;2.67;;;;;;;11.37;45.77;100538.06;5017793;28;20073;-63
2024/03/25 04:46:19;;;;;;;8.23;2.47;;;;;;;11.36;45.36;100533.69;5018037;28;20195;-63
2024/03/25 04:48:44;;;;;;;3.72;2.25;;;;;;;11.35;45.91;100532.00;5001754;28;20123;-63
2024/03/25 04:51:10;;;;;;;10.73;2.45;;;;;;;11.35;45.34;100538.19;5035332;28;20038;-63
2024/03/25 04:53:35;;;;;;;4.50;2.30;;;;;;;11.33;45.24;100539.34;5035166;28;20083;-63
2024/03/25 04:56:01;;;;;;;9.25;2.83;;;;;;;11.29;45.82;100535.22;5017631;28;20033;-63
2024/03/25 04:58:26;;;;;;;6.63;2.72;;;;;;;11.32;45.88;100537.63;5017700;28;20076;-63
2024/03/25 05:00:52;;;;;;;6.28;2.95;;;;;;;11.28;45.24;100531.69;5035069;28;20037;-63
2024/03/25 05:03:18;;;;;;;6.82;2.65;;;;;;;11.29;46.01;100546.81;5017615;28;20057;-63
2024/03/25 05:05:43;;;;;;;7.40;2.70;;;;;;;11.29;45.54;100549.50;5017551;28;20041;-63
2024/03/25 05:08:09;;;;;;;4.38;2.40;;;;;;;11.29;45.12;100544.13;5017478;28;20428;-63
2024/03/25 05:10:34;;;;;;;8.27;2.60;;;;;;;11.29;45.23;100537.91;5034801;28;20033;-64
2024/03/25 05:13:00;;;;;;;7.45;2.40;;;;;;;11.27;45.53;100540.75;5001125;28;20034;-63
2024/03/25 05:15:25;;;;;;;6.07;2.83;;;;;;;11.25;45.30;100540.00;5035439;28;20101;-63
2024/03/25 05:17:50;;;;;;;10.05;2.92;;;;;;;11.24;44.83;100545.53;5017723;28;20071;-63
2024/03/25 05:20:16;;;;;;;6.32;2.47;;;;;;;11.20;45.72;100544.09;5036126;28;20040;-64
2024/03/25 05:22:41;;;;;;;6.18;2.22;;;;;;;11.20;45.64;100549.47;5035953;28;20029;-63
2024/03/25 05:25:07;;;;;;;6.80;3.08;;;;;;;11.15;44.79;100538.31;5019615;28;20086;-64
2024/03/25 05:27:32;;;;;;;11.98;3.00;;;;;;;11.13;45.52;100535.81;5038448;28;20553;-63
2024/03/25 05:29:58;;;;;;;8.85;2.38;;;;;;;11.13;45.26;100551.88;5005063;28;20123;-63
2024/03/25 05:32:23;;;;;;;2.45;2.20;;;;;;;11.09;45.32;100545.94;5021258;28;20041;-63
2024/03/25 05:34:48;;;;;;;6.03;2.45;;;;;;;11.06;44.97;100543.53;5020822;28;20401;-63
2024/03/25 05:37:14;;;;;;;7.75;2.17;;;;;;;11.05;45.48;100563.28;5037693;28;20040;-69
2024/03/25 05:39:39;;;;;;;6.53;2.38;;;;;;;11.00;45.39;100554.81;5000665;28;20088;-68
2024/03/25 05:42:05;;;;;;;5.35;2.72;;;;;;;10.98;45.87;100555.94;5016863;28;20034;-68
2024/03/25 05:44:31;;;;;;;5.85;3.05;;;;;;;10.95;45.13;100551.69;5034489;28;20116;-68
2024/03/25 05:46:56;;;;;;;3.85;2.20;;;;;;;10.89;45.26;100552.25;5034404;28;20025;-68
2024/03/25 05:49:21;;;;;;;7.90;2.85;;;;;;;10.91;44.78;100555.66;5000392;28;20056;-68
2024/03/25 05:51:47;;;;;;;8.15;2.80;;;;;;;10.90;45.13;100556.63;5034403;28;20032;-68
2024/03/25 05:54:13;;;;;;;9.20;3.05;;;;;;;10.91;45.76;100560.16;5000175;28;20029;-69
2024/03/25 05:56:38;;;;;;;3.22;2.00;;;;;;;10.93;45.31;100564.41;4999965;28;20413;-69
2024/03/25 05:59:03;;;;;;;3.20;2.17;;;;;;;10.91;45.62;100555.66;5016328;28;20045;-68
2024/03/25 06:01:29;;;;;;;7.50;2.42;;;;;;;10.94;45.28;100559.91;5033878;28;20553;-68
2024/03/25 06:03:54;;;;;;;7.63;2.33;;;;;;;10.93;45.50;100551.00;5034077;28;20076;-68
2024/03/25 06:06:19;;;;;;;6.18;2.85;;;;;;;11.01;44.81;100553.84;5035310;28;20079;-68
2024/03/25 06:08:45;;;;;;;7.53;3.10;;;;;;;11.07;44.94;100555.13;5034232;28;20029;-69
2024/03/25 06:11:10;;;;;;;9.88;3.10;;;;;;;11.16;45.15;100548.06;5016263;28;20040;-68
2024/03/25 06:13:36;;;;;;;7.78;3.58;;;;;;;11.20;45.77;100553.00;5016245;28;20112;-68
2024/03/25 06:16:01;;;;;;;8.23;4.43;;;;;;;11.30;45.24;100547.66;5033841;28;20030;-69
2024/03/25 06:18:27;;;;;;;13.15;4.25;;;;;;;11.45;45.46;100548.91;5016244;28;20056;-69
2024/03/25 06:20:52;;;;;;;13.80;5.03;;;;;;;11.56;45.44;100546.09;5033958;28;20030;-69
2024/03/25 06:23:28;;;;;;;12.13;3.75;;;;;;;11.72;44.75;100541.03;5015628;28;20060;-69
2024/03/25 06:25:54;;;;;;;18.30;4.13;;;;;;;11.87;45.53;100536.91;5034429;28;20040;-68
2024/03/25 06:28:20;;;;;;;12.27;4.32;;;;;;;12.01;45.22;100531.06;5016587;28;20083;-69
2024/03/25 06:36:15;;;;;;;10.40;4.80;;;;;;;12.52;45.28;100529.75;5019005;28;20032;-68
2024/03/25 06:38:41;;;;;;;14.85;4.55;;;;;;;12.73;45.51;100531.16;5033615;28;20033;-68
2024/03/25 06:41:06;;;;;;;10.73;4.47;;;;;;;12.93;45.47;100533.75;5016046;28;20033;-68
2024/03/25 06:43:32;;;;;;;12.50;4.05;;;;;;;13.08;44.91;100522.38;5033453;28;20438;-68
2024/03/25 06:45:57;;;;;;;7.25;3.75;;;;;;;13.25;45.95;100521.53;5031730;28;20036;-63
2024/03/25 06:48:23;;;;;;;11.95;4.10;;;;;;;13.43;45.16;100520.69;4995915;28;20490;-63
2024/03/25 06:50:55;;;;;;;15.65;5.00;;;;;;;13.65;44.20;100521.00;5013457;28;20494;-63
2024/03/25 06:53:21;;;;;;;7.97;4.15;;;;;;;13.83;44.89;100512.91;4995340;28;20030;-64
2024/03/25 06:55:56;;;;;;;18.13;4.55;;;;;;;14.08;43.97;100512.06;4995303;28;20383;-63
2024/03/25 06:58:25;;;;;;;15.35;5.03;;;;;;;14.27;44.88;100521.75;5008929;28;20046;-63
2024/03/25 07:00:52;;;;;;;11.07;4.38;;;;;;;14.43;44.93;100521.88;4993821;28;20068;-64
2024/03/25 07:03:18;;;;;;;10.98;3.75;;;;;;;14.55;44.20;100521.41;4992474;28;20050;-64
2024/03/25 07:05:46;;;;;;;14.50;4.90;;;;;;;14.67;43.89;100511.19;4976956;28;20096;-63
2024/03/25 07:08:12;;;;;;;14.70;4.55;;;;;;;14.79;45.46;100504.50;5008956;28;20113;-64
2024/03/25 07:10:37;;;;;;;14.52;4.75;;;;;;;14.96;44.87;100513.47;4992259;28;20490;-64
2024/03/25 07:13:03;;;;;;;8.15;4.07;;;;;;;15.08;44.98;100514.81;4996968;28;20081;-64
2024/03/25 07:15:28;;;;;;;14.68;5.35;;;;;;;15.13;44.97;100513.31;5009081;28;20038;-64
2024/03/25 07:17:54;;;;;;;9.85;4.25;;;;;;;15.23;44.79;100515.88;5009016;28;20030;-64
2024/03/25 07:20:21;;;;;;;12.10;4.35;;;;;;;15.35;44.21;100509.16;4991976;28;20038;-64
2024/03/25 07:22:47;;;;;;;15.07;5.40;;;;;;;15.52;44.74;100516.25;4993406;28;20023;-64
2024/03/25 07:25:12;;;;;;;17.73;5.15;;;;;;;15.66;44.16;100518.28;5010773;28;20045;-64
2024/03/25 07:27:38;;;;;;;13.68;4.97;;;;;;;15.78;44.46;100510.69;4976056;28;20033;-64
2024/03/25 07:30:06;;;;;;;19.17;5.00;;;;;;;15.96;44.46;100513.19;4992125;28;20096;-64
2024/03/25 07:32:32;;;;;;;13.15;5.20;;;;;;;16.14;44.89;100505.72;4993489;28;20037;-64
2024/03/25 07:34:57;;;;;;;13.32;5.15;;;;;;;16.31;43.90;100502.78;4997027;28;20487;-63
2024/03/25 07:37:22;;;;;;;16.40;5.50;;;;;;;16.56;43.85;100510.84;4995920;28;20050;-64
2024/03/25 07:39:47;;;;;;;13.82;4.80;;;;;;;16.73;43.64;100502.47;4995898;28;20054;-65
2024/03/25 07:42:13;;;;;;;11.68;4.93;;;;;;;16.92;43.12;100503.06;5012196;28;20141;-64
2024/03/25 07:44:39;;;;;;;12.18;5.18;;;;;;;17.08;43.20;100500.25;4997258;28;20093;-65
2024/03/25 07:47:04;;;;;;;12.63;5.22;;;;;;;17.19;43.22;100498.00;4996892;28;20030;-65
2024/03/25 07:49:31;;;;;;;16.35;5.97;;;;;;;17.31;43.03;100506.50;5002330;28;20085;-65
2024/03/25 07:51:56;;;;;;;14.75;5.40;;;;;;;17.41;43.51;100499.00;4996795;28;20030;-65
2024/03/25 07:54:22;;;;;;;13.82;5.88;;;;;;;17.58;43.53;100503.31;5015174;28;20038;-66
2024/03/25 07:56:47;;;;;;;14.90;6.03;;;;;;;17.80;43.34;100494.28;5020594;28;20497;-63
2024/03/25 07:59:12;;;;;;;14.43;5.15;;;;;;;17.87;42.97;100495.22;5018559;28;20029;-65
2024/03/25 08:01:38;;;;;;;13.73;4.97;;;;;;;18.10;42.55;100497.03;5018500;28;20429;-64
2024/03/25 08:04:03;;;;;;;12.38;4.47;;;;;;;18.11;42.55;100493.31;5036616;28;20034;-64
2024/03/25 08:06:29;;;;;;;13.45;4.65;;;;;;;18.17;42.45;100497.97;5036856;28;20030;-64
2024/03/25 08:08:54;;;;;;;12.75;4.85;;;;;;;18.25;42.13;100498.75;5018608;28;20049;-65
2024/03/25 08:11:20;;;;;;;14.55;4.78;;;;;;;18.39;42.16;100502.47;5035882;28;20037;-65
2024/03/25 08:13:46;;;;;;;7.65;3.70;;;;;;;18.53;41.99;100496.22;5018667;28;20040;-65
2024/03/25 08:16:11;;;;;;;14.77;3.95;;;;;;;18.60;41.96;100483.56;5018387;28;20033;-64
2024/03/25 08:18:36;;;;;;;9.80;3.65;;;;;;;18.63;41.41;100482.34;5001398;28;20041;-65
2024/03/25 08:21:02;;;;;;;8.68;3.85;;;;;;;18.75;42.04;100489.84;5016036;28;20493;-65
2024/03/25 08:23:27;;;;;;;11.18;4.68;;;;;;;18.86;40.74;100489.34;4982234;28;20025;-66
2024/03/25 08:25:53;;;;;;;8.35;3.55;;;;;;;18.93;41.68;100484.81;4998846;28;20034;-65
2024/03/25 08:28:18;;;;;;;8.70;4.45;;;;;;;19.14;41.27;100493.00;4998525;28;20037;-65
2024/03/25 08:30:43;;;;;;;8.40;4.05;;;;;;;19.35;41.10;100483.16;4998234;28;20040;-65
2024/03/25 08:33:09;;;;;;;9.27;3.88;;;;;;;19.54;40.86;100483.38;4982116;28;20038;-65
2024/03/25 08:35:34;;;;;;;9.25;3.90;;;;;;;19.75;40.57;100486.06;5015862;28;20040;-65
2024/03/25 08:37:59;;;;;;;8.50;3.92;;;;;;;19.93;40.31;100482.03;4998696;28;20040;-65
2024/03/25 08:40:25;;;;;;;10.70;3.72;;;;;;;20.05;40.40;100489.44;4998698;28;20054;-65
2024/03/25 08:42:50;;;;;;;9.27;4.43;;;;;;;20.11;40.31;100480.47;5016999;28;20037;-65
2024/03/25 08:45:15;;;;;;;8.48;2.97;;;;;;;20.29;40.19;100489.00;4999342;28;20026;-65
2024/03/25 08:47:42;;;;;;;8.63;3.70;;;;;;;20.49;40.32;100489.09;5018189;28;20096;-66
2024/03/25 08:50:08;;;;;;;7.05;3.42;;;;;;;20.63;39.89;100484.56;5000261;28;20029;-66
2024/03/25 08:52:33;;;;;;;8.43;3.67;;;;;;;20.90;39.00;100486.34;4999494;28;20036;-66
2024/03/25 08:54:58;;;;;;;13.82;4.28;;;;;;;21.17;38.99;100481.81;5017313;28;20180;-65
2024/03/25 08:57:24;;;;;;;7.18;2.97;;;;;;;21.44;39.10;100478.09;5015181;28;20053;-65
2024/03/25 08:59:49;;;;;;;7.63;3.30;;;;;;;21.66;39.17;100473.31;5015487;28;20037;-65
2024/03/25 09:02:14;;;;;;;15.20;4.63;;;;;;;21.84;38.25;100473.50;4981441;28;20112;-65
2024/03/25 09:04:40;;;;;;;10.68;3.80;;;;;;;22.03;37.94;100468.06;4981468;28;20117;-65
2024/03/25 09:07:05;;;;;;;12.93;4.93;;;;;;;22.27;38.01;100469.28;5015467;28;20555;-64
2024/03/25 09:12:14;;;;;;;12.18;4.10;;;;;;;22.75;37.84;100461.56;5015283;28;20092;-66
2024/03/25 09:14:39;;;;;;;9.25;3.95;;;;;;;22.83;37.87;100460.47;4997544;28;20033;-67
2024/03/25 09:17:05;;;;;;;8.60;3.72;;;;;;;22.98;37.70;100456.38;5015095;28;20076;-64
2024/03/25 09:19:30;;;;;;;9.13;3.38;;;;;;;23.17;37.05;100460.09;5014924;28;20037;-64
2024/03/25 09:21:55;;;;;;;10.57;4.10;;;;;;;23.45;37.47;100462.44;4997357;28;20044;-64
2024/03/25 09:24:21;;;;;;;9.60;3.10;;;;;;;23.67;36.72;100456.34;4980989;28;20065;-64
2024/03/25 09:26:49;;;;;;;7.15;3.50;;;;;;;23.91;35.81;100453.81;5014897;28;20038;-64
2024/03/25 09:29:15;;;;;;;8.77;3.67;;;;;;;24.18;36.24;100445.16;5015052;28;20113;-65
2024/03/25 09:31:40;;;;;;;8.70;3.67;;;;;;;24.29;35.46;100438.06;5014923;28;20117;-64
2024/03/25 09:34:05;;;;;;;10.80;4.05;;;;;;;24.39;35.29;100426.59;4997179;28;20057;-64
2024/03/25 09:36:31;;;;;;;6.72;3.22;;;;;;;24.54;35.11;100430.59;5014898;28;20121;-65
2024/03/25 09:38:56;;;;;;;7.95;3.13;;;;;;;24.64;35.38;100425.44;4997113;28;20038;-64
2024/03/25 09:41:22;;;;;;;10.15;4.03;;;;;;;24.85;35.05;100421.38;4980860;28;20529;-65
2024/03/25 09:43:51;;;;;;;7.65;3.90;;;;;;;25.08;34.72;100420.63;4997462;28;20498;-65
2024/03/25 09:46:17;;;;;;;10.25;3.95;;;;;;;25.50;34.17;100414.09;4997220;28;20038;-66
2024/03/25 09:48:42;;;;;;;5.75;3.47;;;;;;;26.55;33.61;100412.09;4980329;28;20038;-65
2024/03/25 09:51:09;;;;;;;12.77;3.80;;;;;;;28.86;30.46;100408.75;4996701;28;20040;-66
2024/03/25 09:53:35;;;;;;;9.65;3.70;;;;;;;28.96;30.40;100403.31;4980505;28;20042;-64
2024/03/25 09:56:00;;;;;;;6.45;3.50;;;;;;;28.64;31.38;100396.91;5013850;28;20516;-65
2024/03/25 09:58:26;;;;;;;6.20;3.28;;;;;;;28.46;31.33;100391.69;5013513;28;20120;-67
2024/03/25 10:00:51;;;;;;;4.43;1.95;;;;;;;28.38;31.43;100403.16;4996454;28;20497;-67
2024/03/25 10:03:17;;;;;;;7.25;2.58;;;;;;;28.32;31.48;100391.25;5014034;28;20038;-68
2024/03/25 10:05:42;;;;;;;4.70;2.03;;;;;;;28.44;30.55;100388.34;4980045;28;20449;-68
2024/03/25 10:08:08;;;;;;;5.82;1.95;;;;;;;28.47;30.69;100387.84;4996376;28;20029;-68
2024/03/25 10:10:39;;;;;;;6.03;1.88;;;;;;;28.56;29.73;100383.56;4980124;28;20573;-67
2024/03/25 10:13:05;;;;;;;8.05;2.22;;;;;;;28.62;30.14;100379.72;5013769;28;20034;-67
2024/03/25 10:15:32;;;;;;;3.10;1.30;;;;;;;28.78;29.28;100373.34;5013771;28;20037;-67
2024/03/25 10:17:57;;;;;;;6.53;2.00;;;;;;;28.98;28.25;100373.53;4996078;28;20116;-67
2024/03/25 10:20:23;;;;;;;4.40;2.22;;;;;;;29.05;28.16;100374.19;4995968;28;20117;-68
2024/03/25 10:22:49;;;;;;;3.20;1.42;;;;;;;29.17;27.94;100366.56;4996084;28;20042;-67
2024/03/25 10:25:28;;;;;;;3.30;1.25;;;;;;;29.35;27.94;100362.59;4996026;28;20038;-67
2024/03/25 10:27:54;;;;;;;4.95;1.52;;;;;;;29.55;28.01;100357.25;4995687;28;20516;-67
2024/03/25 10:30:20;;;;;;;4.28;1.60;;;;;;;29.69;27.47;100363.13;5013834;28;20489;-67
2024/03/25 10:32:45;;;;;;;4.45;1.90;;;;;;;29.79;27.13;100363.19;4995922;28;20144;-66
2024/03/25 10:35:10;;;;;;;7.90;1.80;;;;;;;29.73;27.27;100354.03;4995933;28;20056;-68
2024/03/25 10:37:36;;;;;;;5.43;1.65;;;;;;;29.57;27.48;100349.50;5013320;28;20109;-68
2024/03/25 10:40:03;;;;;;;3.20;1.60;;;;;;;29.60;27.33;100350.91;5013394;28;20113;-67
2024/03/25 10:42:30;;;;;;;5.45;1.45;;;;;;;29.60;27.14;100340.69;4995572;28;20431;-67
2024/03/25 10:44:56;;;;;;;2.95;1.20;;;;;;;29.58;27.32;100342.06;4979384;28;20026;-67
2024/03/25 10:47:25;;;;;;;5.07;1.27;;;;;;;29.53;27.11;100339.28;4979142;28;20136;-66
2024/03/25 10:49:58;;;;;;;3.00;1.67;;;;;;;29.58;26.16;100333.78;4995751;28;20513;-68
2024/03/25 10:52:24;;;;;;;3.90;1.45;;;;;;;29.68;26.98;100328.31;4995743;28;20434;-67
2024/03/25 10:54:49;;;;;;;4.28;1.60;;;;;;;29.73;26.45;100329.19;4979451;28;20541;-67
2024/03/25 10:57:16;;;;;;;3.90;1.60;;;;;;;29.73;26.17;100320.88;4979101;28;20038;-67
2024/03/25 10:59:45;;;;;;;3.47;1.10;;;;;;;29.60;25.89;100318.59;4995567;28;20041;-67
2024/03/25 11:02:11;;;;;;;2.80;1.38;;;;;;;29.77;26.24;100316.50;5012924;28;20084;-68
2024/03/25 11:04:37;;;;;;;4.75;1.10;;;;;;;29.91;26.17;100312.19;4995657;28;20030;-68
2024/03/25 11:07:12;;;;;;;2.90;1.10;;;;;;;29.92;25.77;100313.88;4995332;28;20041;-67
2024/03/25 11:09:38;;;;;;;2.05;0.98;;;;;;;29.93;26.01;100311.91;4978827;28;20076;-67
2024/03/25 11:12:04;;;;;;;3.55;1.55;;;;;;;30.22;25.81;100312.31;4995398;28;20042;-66
2024/03/25 11:14:31;;;;;;;3.83;1.60;;;;;;;30.46;25.65;100308.84;4995482;28;20069;-68
2024/03/25 11:16:57;;;;;;;2.70;1.63;;;;;;;30.78;25.57;100296.75;4979266;28;20034;-68
2024/03/25 11:19:28;;;;;;;4.60;1.50;;;;;;;30.85;25.09;100295.34;4979015;28;20165;-67
2024/03/25 11:21:54;;;;;;;1.85;1.60;;;;;;;30.81;25.70;100298.94;4979257;28;20655;-67
2024/03/25 11:24:29;;;;;;;4.22;1.60;;;;;;;30.39;25.25;100290.84;4995306;28;20044;-67